sensor_id;sensor_type;location;lat;lon;timestamp;temperature;humidity
47813;DHT22;34221;45.296;9.516;2022-11-15T00:00:26;8.70;99.90
47813;DHT22;34221;45.296;9.516;2022-11-15T00:00:59;8.80;99.90
47813;DHT22;34221;45.296;9.516;2022-11-15T00:01:33;8.80;99.90
47813;DHT22;34221;45.296;9.516;2022-11-15T00:02:06;8.80;99.90
47813;DHT22;34221;45.296;9.516;2022-11-15T00:02:40;8.90;99.90
47813;DHT22;34221;45.296;9.516;2022-11-15T00:03:18;8.90;99.90
47813;DHT22;34221;45.296;9.516;2022-11-15T00:03:52;8.90;99.90
47813;DHT22;34221;45.296;9.516;2022-11-15T00:04:26;8.90;99.90
47813;DHT22;34221;45.296;9.516;2022-11-15T00:04:59;8.90;99.90
47813;DHT22;34221;45.296;9.516;2022-11-15T00:05:35;8.90;99.90
47813;DHT22;34221;45.296;9.516;2022-11-15T00:06:09;8.90;99.90
47813;DHT22;34221;45.296;9.516;2022-11-15T00:06:42;8.90;99.90
47813;DHT22;34221;45.296;9.516;2022-11-15T00:07:16;8.80;99.90
47813;DHT22;34221;45.296;9.516;2022-11-15T00:07:49;8.90;99.90
47813;DHT22;34221;45.296;9.516;2022-11-15T00:08:23;8.80;99.90
47813;DHT22;34221;45.296;9.516;2022-11-15T00:09:00;8.80;99.90
47813;DHT22;34221;45.296;9.516;2022-11-15T00:09:34;8.80;99.90
47813;DHT22;34221;45.296;9.516;2022-11-15T00:10:07;8.80;99.90
47813;DHT22;34221;45.296;9.516;2022-11-15T00:10:41;8.70;99.90
47813;DHT22;34221;45.296;9.516;2022-11-15T00:11:15;8.80;99.90
47813;DHT22;34221;45.296;9.516;2022-11-15T00:11:48;8.70;99.90
47813;DHT22;34221;45.296;9.516;2022-11-15T00:12:22;8.70;99.90
47813;DHT22;34221;45.296;9.516;2022-11-15T00:12:56;8.70;99.90
47813;DHT22;34221;45.296;9.516;2022-11-15T00:13:30;8.70;99.90
47813;DHT22;34221;45.296;9.516;2022-11-15T00:14:03;8.70;99.90
47813;DHT22;34221;45.296;9.516;2022-11-15T00:14:37;8.70;99.90
47813;DHT22;34221;45.296;9.516;2022-11-15T00:15:10;8.80;99.90
47813;DHT22;34221;45.296;9.516;2022-11-15T00:15:44;8.70;99.90
47813;DHT22;34221;45.296;9.516;2022-11-15T00:16:19;8.70;99.90
47813;DHT22;34221;45.296;9.516;2022-11-15T00:16:53;8.80;99.90
47813;DHT22;34221;45.296;9.516;2022-11-15T00:17:28;8.80;99.90
47813;DHT22;34221;45.296;9.516;2022-11-15T00:18:03;8.80;99.90
47813;DHT22;34221;45.296;9.516;2022-11-15T00:18:38;8.80;99.90
47813;DHT22;34221;45.296;9.516;2022-11-15T00:19:12;8.80;99.90
47813;DHT22;34221;45.296;9.516;2022-11-15T00:19:46;8.80;99.90
47813;DHT22;34221;45.296;9.516;2022-11-15T00:20:20;8.80;99.90
47813;DHT22;34221;45.296;9.516;2022-11-15T00:20:54;8.80;99.90
47813;DHT22;34221;45.296;9.516;2022-11-15T00:21:27;8.80;99.90
47813;DHT22;34221;45.296;9.516;2022-11-15T00:22:01;8.80;99.90
47813;DHT22;34221;45.296;9.516;2022-11-15T00:22:34;8.80;99.90
47813;DHT22;34221;45.296;9.516;2022-11-15T00:23:08;8.80;99.90
47813;DHT22;34221;45.296;9.516;2022-11-15T00:23:42;8.80;99.90
47813;DHT22;34221;45.296;9.516;2022-11-15T00:24:16;8.80;99.90
47813;DHT22;34221;45.296;9.516;2022-11-15T00:24:49;8.80;99.90
47813;DHT22;34221;45.296;9.516;2022-11-15T00:25:22;8.80;99.90
47813;DHT22;34221;45.296;9.516;2022-11-15T00:25:57;8.80;99.90
47813;DHT22;34221;45.296;9.516;2022-11-15T00:26:31;8.80;99.90
47813;DHT22;34221;45.296;9.516;2022-11-15T00:27:04;8.90;99.90
47813;DHT22;34221;45.296;9.516;2022-11-15T00:27:38;8.80;99.90
47813;DHT22;34221;45.296;9.516;2022-11-15T00:28:11;8.80;99.90
47813;DHT22;34221;45.296;9.516;2022-11-15T00:28:45;8.80;99.90
47813;DHT22;34221;45.296;9.516;2022-11-15T00:29:18;8.80;99.90
47813;DHT22;34221;45.296;9.516;2022-11-15T00:29:52;8.80;99.90
47813;DHT22;34221;45.296;9.516;2022-11-15T00:30:26;8.90;99.90
47813;DHT22;34221;45.296;9.516;2022-11-15T00:31:02;8.80;99.90
47813;DHT22;34221;45.296;9.516;2022-11-15T00:31:36;8.90;99.90
47813;DHT22;34221;45.296;9.516;2022-11-15T00:32:10;8.80;99.90
47813;DHT22;34221;45.296;9.516;2022-11-15T00:32:43;8.80;99.90
47813;DHT22;34221;45.296;9.516;2022-11-15T00:33:17;8.80;99.90
47813;DHT22;34221;45.296;9.516;2022-11-15T00:33:50;8.80;99.90
47813;DHT22;34221;45.296;9.516;2022-11-15T00:34:24;8.80;99.90
47813;DHT22;34221;45.296;9.516;2022-11-15T00:34:57;8.90;99.90
47813;DHT22;34221;45.296;9.516;2022-11-15T00:35:32;8.90;99.90
47813;DHT22;34221;45.296;9.516;2022-11-15T00:36:08;8.90;99.90
47813;DHT22;34221;45.296;9.516;2022-11-15T00:36:42;8.90;99.90
47813;DHT22;34221;45.296;9.516;2022-11-15T00:37:16;8.80;99.90
47813;DHT22;34221;45.296;9.516;2022-11-15T00:37:49;8.80;99.90
47813;DHT22;34221;45.296;9.516;2022-11-15T00:38:25;8.80;99.90
47813;DHT22;34221;45.296;9.516;2022-11-15T00:38:58;8.80;99.90
47813;DHT22;34221;45.296;9.516;2022-11-15T00:39:32;8.90;99.90
47813;DHT22;34221;45.296;9.516;2022-11-15T00:40:06;8.90;99.90
47813;DHT22;34221;45.296;9.516;2022-11-15T00:40:41;8.90;99.90
47813;DHT22;34221;45.296;9.516;2022-11-15T00:41:14;8.90;99.90
47813;DHT22;34221;45.296;9.516;2022-11-15T00:41:48;8.90;99.90
47813;DHT22;34221;45.296;9.516;2022-11-15T00:42:21;8.90;99.90
47813;DHT22;34221;45.296;9.516;2022-11-15T00:42:55;8.90;99.90
47813;DHT22;34221;45.296;9.516;2022-11-15T00:43:29;8.90;99.90
47813;DHT22;34221;45.296;9.516;2022-11-15T00:44:03;8.90;99.90
47813;DHT22;34221;45.296;9.516;2022-11-15T00:44:36;8.90;99.90
47813;DHT22;34221;45.296;9.516;2022-11-15T00:45:10;8.90;99.90
47813;DHT22;34221;45.296;9.516;2022-11-15T00:45:43;8.90;99.90
47813;DHT22;34221;45.296;9.516;2022-11-15T00:46:17;8.80;99.90
47813;DHT22;34221;45.296;9.516;2022-11-15T00:46:50;8.90;99.90
47813;DHT22;34221;45.296;9.516;2022-11-15T00:47:24;8.80;99.90
47813;DHT22;34221;45.296;9.516;2022-11-15T00:47:57;8.80;99.90
47813;DHT22;34221;45.296;9.516;2022-11-15T00:48:31;8.80;99.90
47813;DHT22;34221;45.296;9.516;2022-11-15T00:49:05;8.80;99.90
47813;DHT22;34221;45.296;9.516;2022-11-15T00:49:39;8.80;99.90
47813;DHT22;34221;45.296;9.516;2022-11-15T00:50:13;8.80;99.90
47813;DHT22;34221;45.296;9.516;2022-11-15T00:50:46;8.80;99.90
47813;DHT22;34221;45.296;9.516;2022-11-15T00:51:19;8.80;99.90
47813;DHT22;34221;45.296;9.516;2022-11-15T00:51:53;8.70;99.90
47813;DHT22;34221;45.296;9.516;2022-11-15T00:52:26;8.80;99.90
47813;DHT22;34221;45.296;9.516;2022-11-15T00:53:00;8.70;99.90
47813;DHT22;34221;45.296;9.516;2022-11-15T00:53:34;8.80;99.90
47813;DHT22;34221;45.296;9.516;2022-11-15T00:54:07;8.80;99.90
47813;DHT22;34221;45.296;9.516;2022-11-15T00:54:41;8.80;99.90
47813;DHT22;34221;45.296;9.516;2022-11-15T00:55:18;8.80;99.90
47813;DHT22;34221;45.296;9.516;2022-11-15T00:55:52;8.70;99.90
47813;DHT22;34221;45.296;9.516;2022-11-15T00:56:26;8.70;99.90
47813;DHT22;34221;45.296;9.516;2022-11-15T00:57:00;8.70;99.90
47813;DHT22;34221;45.296;9.516;2022-11-15T00:57:33;8.70;99.90
47813;DHT22;34221;45.296;9.516;2022-11-15T00:58:07;8.70;99.90
47813;DHT22;34221;45.296;9.516;2022-11-15T00:58:41;8.70;99.90
47813;DHT22;34221;45.296;9.516;2022-11-15T00:59:14;8.70;99.90
47813;DHT22;34221;45.296;9.516;2022-11-15T00:59:47;8.70;99.90
47813;DHT22;34221;45.296;9.516;2022-11-15T01:00:21;8.60;99.90
47813;DHT22;34221;45.296;9.516;2022-11-15T01:00:54;8.70;99.90
47813;DHT22;34221;45.296;9.516;2022-11-15T01:01:28;8.70;99.90
47813;DHT22;34221;45.296;9.516;2022-11-15T01:02:02;8.70;99.90
47813;DHT22;34221;45.296;9.516;2022-11-15T01:02:35;8.60;99.90
47813;DHT22;34221;45.296;9.516;2022-11-15T01:03:09;8.70;99.90
47813;DHT22;34221;45.296;9.516;2022-11-15T01:03:43;8.70;99.90
47813;DHT22;34221;45.296;9.516;2022-11-15T01:04:17;8.70;99.90
47813;DHT22;34221;45.296;9.516;2022-11-15T01:04:50;8.60;99.90
47813;DHT22;34221;45.296;9.516;2022-11-15T01:05:23;8.70;99.90
47813;DHT22;34221;45.296;9.516;2022-11-15T01:05:59;8.70;99.90
47813;DHT22;34221;45.296;9.516;2022-11-15T01:06:33;8.70;99.90
47813;DHT22;34221;45.296;9.516;2022-11-15T01:07:06;8.70;99.90
47813;DHT22;34221;45.296;9.516;2022-11-15T01:07:40;8.60;99.90
47813;DHT22;34221;45.296;9.516;2022-11-15T01:08:14;8.70;99.90
47813;DHT22;34221;45.296;9.516;2022-11-15T01:08:49;8.70;99.90
47813;DHT22;34221;45.296;9.516;2022-11-15T01:09:22;8.60;99.90
47813;DHT22;34221;45.296;9.516;2022-11-15T01:09:56;8.60;99.90
47813;DHT22;34221;45.296;9.516;2022-11-15T01:10:29;8.60;99.90
47813;DHT22;34221;45.296;9.516;2022-11-15T01:11:05;8.60;99.90
47813;DHT22;34221;45.296;9.516;2022-11-15T01:11:40;8.50;99.90
47813;DHT22;34221;45.296;9.516;2022-11-15T01:12:14;8.60;99.90
47813;DHT22;34221;45.296;9.516;2022-11-15T01:12:48;8.60;99.90
47813;DHT22;34221;45.296;9.516;2022-11-15T01:13:21;8.50;99.90
47813;DHT22;34221;45.296;9.516;2022-11-15T01:13:55;8.50;99.90
47813;DHT22;34221;45.296;9.516;2022-11-15T01:14:28;8.50;99.90
47813;DHT22;34221;45.296;9.516;2022-11-15T01:15:03;8.50;99.90
47813;DHT22;34221;45.296;9.516;2022-11-15T01:15:41;8.50;99.90
47813;DHT22;34221;45.296;9.516;2022-11-15T01:16:17;8.40;99.90
47813;DHT22;34221;45.296;9.516;2022-11-15T01:16:51;8.40;99.90
47813;DHT22;34221;45.296;9.516;2022-11-15T01:17:25;8.50;99.90
47813;DHT22;34221;45.296;9.516;2022-11-15T01:17:59;8.40;99.90
47813;DHT22;34221;45.296;9.516;2022-11-15T01:18:32;8.40;99.90
47813;DHT22;34221;45.296;9.516;2022-11-15T01:19:06;8.40;99.90
47813;DHT22;34221;45.296;9.516;2022-11-15T01:19:39;8.40;99.90
47813;DHT22;34221;45.296;9.516;2022-11-15T01:20:13;8.40;99.90
47813;DHT22;34221;45.296;9.516;2022-11-15T01:20:46;8.40;99.90
47813;DHT22;34221;45.296;9.516;2022-11-15T01:21:20;8.30;99.90
47813;DHT22;34221;45.296;9.516;2022-11-15T01:21:54;8.20;99.90
47813;DHT22;34221;45.296;9.516;2022-11-15T01:22:27;8.20;99.90
47813;DHT22;34221;45.296;9.516;2022-11-15T01:23:00;8.20;99.90
47813;DHT22;34221;45.296;9.516;2022-11-15T01:23:34;8.20;99.90
47813;DHT22;34221;45.296;9.516;2022-11-15T01:24:12;8.30;99.90
47813;DHT22;34221;45.296;9.516;2022-11-15T01:24:45;8.30;99.90
47813;DHT22;34221;45.296;9.516;2022-11-15T01:25:19;8.20;99.90
47813;DHT22;34221;45.296;9.516;2022-11-15T01:25:52;8.20;99.90
47813;DHT22;34221;45.296;9.516;2022-11-15T01:26:26;8.20;99.90
47813;DHT22;34221;45.296;9.516;2022-11-15T01:26:59;8.20;99.90
47813;DHT22;34221;45.296;9.516;2022-11-15T01:27:33;8.20;99.90
47813;DHT22;34221;45.296;9.516;2022-11-15T01:28:07;8.20;99.90
47813;DHT22;34221;45.296;9.516;2022-11-15T01:28:41;8.20;99.90
47813;DHT22;34221;45.296;9.516;2022-11-15T01:29:14;8.20;99.90
47813;DHT22;34221;45.296;9.516;2022-11-15T01:29:48;8.20;99.90
47813;DHT22;34221;45.296;9.516;2022-11-15T01:30:22;8.20;99.90
47813;DHT22;34221;45.296;9.516;2022-11-15T01:30:58;8.20;99.90
47813;DHT22;34221;45.296;9.516;2022-11-15T01:31:34;8.30;99.90
47813;DHT22;34221;45.296;9.516;2022-11-15T01:32:08;8.20;99.90
47813;DHT22;34221;45.296;9.516;2022-11-15T01:32:42;8.30;99.90
47813;DHT22;34221;45.296;9.516;2022-11-15T01:33:15;8.30;99.90
47813;DHT22;34221;45.296;9.516;2022-11-15T01:33:49;8.30;99.90
47813;DHT22;34221;45.296;9.516;2022-11-15T01:34:23;8.40;99.90
47813;DHT22;34221;45.296;9.516;2022-11-15T01:34:56;8.40;99.90
47813;DHT22;34221;45.296;9.516;2022-11-15T01:35:29;8.40;99.90
47813;DHT22;34221;45.296;9.516;2022-11-15T01:36:04;8.40;99.90
47813;DHT22;34221;45.296;9.516;2022-11-15T01:36:39;8.40;99.90
47813;DHT22;34221;45.296;9.516;2022-11-15T01:37:12;8.40;99.90
47813;DHT22;34221;45.296;9.516;2022-11-15T01:37:46;8.40;99.90
47813;DHT22;34221;45.296;9.516;2022-11-15T01:38:20;8.40;99.90
47813;DHT22;34221;45.296;9.516;2022-11-15T01:38:54;8.40;99.90
47813;DHT22;34221;45.296;9.516;2022-11-15T01:39:29;8.40;99.90
47813;DHT22;34221;45.296;9.516;2022-11-15T01:40:02;8.40;99.90
47813;DHT22;34221;45.296;9.516;2022-11-15T01:40:37;8.40;99.90
47813;DHT22;34221;45.296;9.516;2022-11-15T01:41:19;8.40;99.90
47813;DHT22;34221;45.296;9.516;2022-11-15T01:41:55;8.30;99.90
47813;DHT22;34221;45.296;9.516;2022-11-15T01:42:29;8.30;99.90
47813;DHT22;34221;45.296;9.516;2022-11-15T01:44:44;8.30;99.90
47813;DHT22;34221;45.296;9.516;2022-11-15T01:45:13;8.20;99.90
47813;DHT22;34221;45.296;9.516;2022-11-15T01:45:52;8.00;99.90
47813;DHT22;34221;45.296;9.516;2022-11-15T01:46:35;8.00;99.90
47813;DHT22;34221;45.296;9.516;2022-11-15T01:47:59;8.00;99.90
47813;DHT22;34221;45.296;9.516;2022-11-15T01:48:34;7.90;99.90
47813;DHT22;34221;45.296;9.516;2022-11-15T01:49:14;7.90;99.90
47813;DHT22;34221;45.296;9.516;2022-11-15T01:50:03;7.90;99.90
47813;DHT22;34221;45.296;9.516;2022-11-15T01:50:39;7.90;99.90
47813;DHT22;34221;45.296;9.516;2022-11-15T01:51:13;7.90;99.90
47813;DHT22;34221;45.296;9.516;2022-11-15T01:51:51;7.90;99.90
47813;DHT22;34221;45.296;9.516;2022-11-15T01:52:27;7.90;99.90
47813;DHT22;34221;45.296;9.516;2022-11-15T01:53:02;7.90;99.90
47813;DHT22;34221;45.296;9.516;2022-11-15T01:53:38;7.90;99.90
47813;DHT22;34221;45.296;9.516;2022-11-15T01:54:16;7.90;99.90
47813;DHT22;34221;45.296;9.516;2022-11-15T01:55:11;7.90;99.90
47813;DHT22;34221;45.296;9.516;2022-11-15T01:55:53;7.90;99.90
47813;DHT22;34221;45.296;9.516;2022-11-15T01:56:30;8.00;99.90
47813;DHT22;34221;45.296;9.516;2022-11-15T01:57:10;8.00;99.90
47813;DHT22;34221;45.296;9.516;2022-11-15T01:57:47;8.00;99.90
47813;DHT22;34221;45.296;9.516;2022-11-15T01:58:24;8.00;99.90
47813;DHT22;34221;45.296;9.516;2022-11-15T01:59:00;8.00;99.90
47813;DHT22;34221;45.296;9.516;2022-11-15T01:59:38;8.00;99.90
47813;DHT22;34221;45.296;9.516;2022-11-15T02:00:15;8.00;99.90
47813;DHT22;34221;45.296;9.516;2022-11-15T02:00:49;7.90;99.90
47813;DHT22;34221;45.296;9.516;2022-11-15T02:01:24;7.90;99.90
47813;DHT22;34221;45.296;9.516;2022-11-15T02:01:59;7.90;99.90
47813;DHT22;34221;45.296;9.516;2022-11-15T02:02:34;7.90;99.90
47813;DHT22;34221;45.296;9.516;2022-11-15T02:03:09;8.00;99.90
47813;DHT22;34221;45.296;9.516;2022-11-15T02:03:51;8.00;99.90
47813;DHT22;34221;45.296;9.516;2022-11-15T02:04:30;8.00;99.90
47813;DHT22;34221;45.296;9.516;2022-11-15T02:05:05;7.90;99.90
47813;DHT22;34221;45.296;9.516;2022-11-15T02:05:39;7.90;99.90
47813;DHT22;34221;45.296;9.516;2022-11-15T02:06:14;8.00;99.90
47813;DHT22;34221;45.296;9.516;2022-11-15T02:06:48;7.90;99.90
47813;DHT22;34221;45.296;9.516;2022-11-15T02:07:23;7.90;99.90
47813;DHT22;34221;45.296;9.516;2022-11-15T02:07:56;7.90;99.90
47813;DHT22;34221;45.296;9.516;2022-11-15T02:08:30;7.90;99.90
47813;DHT22;34221;45.296;9.516;2022-11-15T02:09:03;7.90;99.90
47813;DHT22;34221;45.296;9.516;2022-11-15T02:09:38;8.00;99.90
47813;DHT22;34221;45.296;9.516;2022-11-15T02:10:18;7.90;99.90
47813;DHT22;34221;45.296;9.516;2022-11-15T02:10:52;7.90;99.90
47813;DHT22;34221;45.296;9.516;2022-11-15T02:11:26;7.90;99.90
47813;DHT22;34221;45.296;9.516;2022-11-15T02:12:00;7.90;99.90
47813;DHT22;34221;45.296;9.516;2022-11-15T02:12:34;7.90;99.90
47813;DHT22;34221;45.296;9.516;2022-11-15T02:13:07;7.90;99.90
47813;DHT22;34221;45.296;9.516;2022-11-15T02:13:42;7.80;99.90
47813;DHT22;34221;45.296;9.516;2022-11-15T02:14:17;7.80;99.90
47813;DHT22;34221;45.296;9.516;2022-11-15T02:14:53;7.80;99.90
47813;DHT22;34221;45.296;9.516;2022-11-15T02:15:39;7.80;99.90
47813;DHT22;34221;45.296;9.516;2022-11-15T02:19:02;7.80;99.90
47813;DHT22;34221;45.296;9.516;2022-11-15T02:24:58;7.70;99.90
47813;DHT22;34221;45.296;9.516;2022-11-15T02:29:08;7.60;99.90
47813;DHT22;34221;45.296;9.516;2022-11-15T02:31:25;7.60;99.90
47813;DHT22;34221;45.296;9.516;2022-11-15T02:32:22;7.60;99.90
47813;DHT22;34221;45.296;9.516;2022-11-15T02:33:26;7.70;99.90
47813;DHT22;34221;45.296;9.516;2022-11-15T02:37:38;7.40;99.90
47813;DHT22;34221;45.296;9.516;2022-11-15T02:38:29;7.40;99.90
47813;DHT22;34221;45.296;9.516;2022-11-15T02:39:10;7.50;99.90
47813;DHT22;34221;45.296;9.516;2022-11-15T02:41:52;7.40;99.90
47813;DHT22;34221;45.296;9.516;2022-11-15T02:42:32;7.40;99.90
47813;DHT22;34221;45.296;9.516;2022-11-15T02:43:35;7.40;99.90
47813;DHT22;34221;45.296;9.516;2022-11-15T02:44:43;7.40;99.90
47813;DHT22;34221;45.296;9.516;2022-11-15T02:45:27;7.40;99.90
47813;DHT22;34221;45.296;9.516;2022-11-15T02:46:58;7.40;99.90
47813;DHT22;34221;45.296;9.516;2022-11-15T02:47:50;7.50;99.90
47813;DHT22;34221;45.296;9.516;2022-11-15T02:48:26;7.50;99.90
47813;DHT22;34221;45.296;9.516;2022-11-15T02:48:59;7.40;99.90
47813;DHT22;34221;45.296;9.516;2022-11-15T02:49:34;7.40;99.90
47813;DHT22;34221;45.296;9.516;2022-11-15T02:50:30;7.40;99.90
47813;DHT22;34221;45.296;9.516;2022-11-15T02:51:05;7.40;99.90
47813;DHT22;34221;45.296;9.516;2022-11-15T02:51:40;7.40;99.90
47813;DHT22;34221;45.296;9.516;2022-11-15T02:52:16;7.40;99.90
47813;DHT22;34221;45.296;9.516;2022-11-15T02:52:50;7.40;99.90
47813;DHT22;34221;45.296;9.516;2022-11-15T02:53:25;7.40;99.90
47813;DHT22;34221;45.296;9.516;2022-11-15T02:53:59;7.40;99.90
47813;DHT22;34221;45.296;9.516;2022-11-15T02:54:34;7.30;99.90
47813;DHT22;34221;45.296;9.516;2022-11-15T02:55:30;7.30;99.90
47813;DHT22;34221;45.296;9.516;2022-11-15T02:56:09;7.30;99.90
47813;DHT22;34221;45.296;9.516;2022-11-15T02:56:44;7.40;99.90
47813;DHT22;34221;45.296;9.516;2022-11-15T02:57:45;7.40;99.90
47813;DHT22;34221;45.296;9.516;2022-11-15T02:58:42;7.40;99.90
47813;DHT22;34221;45.296;9.516;2022-11-15T03:00:25;7.30;99.90
47813;DHT22;34221;45.296;9.516;2022-11-15T03:01:22;7.30;99.90
47813;DHT22;34221;45.296;9.516;2022-11-15T03:02:20;7.30;99.90
47813;DHT22;34221;45.296;9.516;2022-11-15T03:04:32;7.30;99.90
47813;DHT22;34221;45.296;9.516;2022-11-15T03:05:29;7.40;99.90
47813;DHT22;34221;45.296;9.516;2022-11-15T03:06:07;7.40;99.90
47813;DHT22;34221;45.296;9.516;2022-11-15T03:06:52;7.50;99.90
47813;DHT22;34221;45.296;9.516;2022-11-15T03:11:41;7.60;99.90
47813;DHT22;34221;45.296;9.516;2022-11-15T03:12:40;7.60;99.90
47813;DHT22;34221;45.296;9.516;2022-11-15T03:13:34;7.60;99.90
47813;DHT22;34221;45.296;9.516;2022-11-15T03:14:29;7.60;99.90
47813;DHT22;34221;45.296;9.516;2022-11-15T03:15:21;7.60;99.90
47813;DHT22;34221;45.296;9.516;2022-11-15T03:16:08;7.60;99.90
47813;DHT22;34221;45.296;9.516;2022-11-15T03:19:03;7.70;99.90
47813;DHT22;34221;45.296;9.516;2022-11-15T03:19:46;7.70;99.90
47813;DHT22;34221;45.296;9.516;2022-11-15T03:20:21;7.70;99.90
47813;DHT22;34221;45.296;9.516;2022-11-15T03:20:54;7.70;99.90
47813;DHT22;34221;45.296;9.516;2022-11-15T03:21:30;7.80;99.90
47813;DHT22;34221;45.296;9.516;2022-11-15T03:22:08;7.70;99.90
47813;DHT22;34221;45.296;9.516;2022-11-15T03:22:46;7.80;99.90
47813;DHT22;34221;45.296;9.516;2022-11-15T03:23:21;7.80;99.90
47813;DHT22;34221;45.296;9.516;2022-11-15T03:23:58;7.70;99.90
47813;DHT22;34221;45.296;9.516;2022-11-15T03:24:36;7.60;99.90
47813;DHT22;34221;45.296;9.516;2022-11-15T03:25:16;7.60;99.90
47813;DHT22;34221;45.296;9.516;2022-11-15T03:25:54;7.70;99.90
47813;DHT22;34221;45.296;9.516;2022-11-15T03:26:29;7.70;99.90
47813;DHT22;34221;45.296;9.516;2022-11-15T03:27:06;7.70;99.90
47813;DHT22;34221;45.296;9.516;2022-11-15T03:27:46;7.70;99.90
47813;DHT22;34221;45.296;9.516;2022-11-15T03:28:27;7.70;99.90
47813;DHT22;34221;45.296;9.516;2022-11-15T03:29:19;7.70;99.90
47813;DHT22;34221;45.296;9.516;2022-11-15T03:30:02;7.80;99.90
47813;DHT22;34221;45.296;9.516;2022-11-15T03:30:39;7.70;99.90
47813;DHT22;34221;45.296;9.516;2022-11-15T03:31:15;7.80;99.90
47813;DHT22;34221;45.296;9.516;2022-11-15T03:32:14;7.80;99.90
47813;DHT22;34221;45.296;9.516;2022-11-15T03:32:53;7.80;99.90
47813;DHT22;34221;45.296;9.516;2022-11-15T03:33:29;7.80;99.90
47813;DHT22;34221;45.296;9.516;2022-11-15T03:34:06;7.80;99.90
47813;DHT22;34221;45.296;9.516;2022-11-15T03:35:27;7.80;99.90
47813;DHT22;34221;45.296;9.516;2022-11-15T03:36:04;7.80;99.90
47813;DHT22;34221;45.296;9.516;2022-11-15T03:36:37;7.80;99.90
47813;DHT22;34221;45.296;9.516;2022-11-15T03:37:14;7.80;99.90
47813;DHT22;34221;45.296;9.516;2022-11-15T03:38:42;7.80;99.90
47813;DHT22;34221;45.296;9.516;2022-11-15T03:39:18;7.90;99.90
47813;DHT22;34221;45.296;9.516;2022-11-15T03:39:53;7.80;99.90
47813;DHT22;34221;45.296;9.516;2022-11-15T03:40:45;7.80;99.90
47813;DHT22;34221;45.296;9.516;2022-11-15T03:43:57;7.80;99.90
47813;DHT22;34221;45.296;9.516;2022-11-15T03:45:56;7.90;99.90
47813;DHT22;34221;45.296;9.516;2022-11-15T03:47:12;7.90;99.90
47813;DHT22;34221;45.296;9.516;2022-11-15T03:48:21;7.90;99.90
47813;DHT22;34221;45.296;9.516;2022-11-15T03:48:51;8.00;99.90
47813;DHT22;34221;45.296;9.516;2022-11-15T03:49:35;8.00;99.90
47813;DHT22;34221;45.296;9.516;2022-11-15T03:50:18;8.00;99.90
47813;DHT22;34221;45.296;9.516;2022-11-15T03:50:53;8.00;99.90
47813;DHT22;34221;45.296;9.516;2022-11-15T03:51:26;8.00;99.90
47813;DHT22;34221;45.296;9.516;2022-11-15T03:52:02;8.00;99.90
47813;DHT22;34221;45.296;9.516;2022-11-15T03:52:36;8.00;99.90
47813;DHT22;34221;45.296;9.516;2022-11-15T03:53:10;8.10;99.90
47813;DHT22;34221;45.296;9.516;2022-11-15T03:53:43;8.10;99.90
47813;DHT22;34221;45.296;9.516;2022-11-15T03:54:17;8.10;99.90
47813;DHT22;34221;45.296;9.516;2022-11-15T03:54:54;8.10;99.90
47813;DHT22;34221;45.296;9.516;2022-11-15T03:55:32;8.10;99.90
47813;DHT22;34221;45.296;9.516;2022-11-15T03:56:06;8.10;99.90
47813;DHT22;34221;45.296;9.516;2022-11-15T03:56:39;8.10;99.90
47813;DHT22;34221;45.296;9.516;2022-11-15T03:57:13;8.10;99.90
47813;DHT22;34221;45.296;9.516;2022-11-15T03:57:50;8.10;99.90
47813;DHT22;34221;45.296;9.516;2022-11-15T03:58:25;8.10;99.90
47813;DHT22;34221;45.296;9.516;2022-11-15T03:58:58;8.20;99.90
47813;DHT22;34221;45.296;9.516;2022-11-15T03:59:32;8.20;99.90
47813;DHT22;34221;45.296;9.516;2022-11-15T04:00:06;8.20;99.90
47813;DHT22;34221;45.296;9.516;2022-11-15T04:00:40;8.10;99.90
47813;DHT22;34221;45.296;9.516;2022-11-15T04:01:13;8.10;99.90
47813;DHT22;34221;45.296;9.516;2022-11-15T04:01:47;8.10;99.90
47813;DHT22;34221;45.296;9.516;2022-11-15T04:02:20;8.10;99.90
47813;DHT22;34221;45.296;9.516;2022-11-15T04:02:54;8.10;99.90
47813;DHT22;34221;45.296;9.516;2022-11-15T04:03:27;8.10;99.90
47813;DHT22;34221;45.296;9.516;2022-11-15T04:04:01;8.20;99.90
47813;DHT22;34221;45.296;9.516;2022-11-15T04:04:34;8.20;99.90
47813;DHT22;34221;45.296;9.516;2022-11-15T04:05:08;8.20;99.90
47813;DHT22;34221;45.296;9.516;2022-11-15T04:05:41;8.20;99.90
47813;DHT22;34221;45.296;9.516;2022-11-15T04:06:15;8.30;99.90
47813;DHT22;34221;45.296;9.516;2022-11-15T04:06:48;8.30;99.90
47813;DHT22;34221;45.296;9.516;2022-11-15T04:07:22;8.20;99.90
47813;DHT22;34221;45.296;9.516;2022-11-15T04:07:55;8.20;99.90
47813;DHT22;34221;45.296;9.516;2022-11-15T04:08:29;8.20;99.90
47813;DHT22;34221;45.296;9.516;2022-11-15T04:09:03;8.20;99.90
47813;DHT22;34221;45.296;9.516;2022-11-15T04:09:36;8.30;99.90
47813;DHT22;34221;45.296;9.516;2022-11-15T04:10:29;8.30;99.90
47813;DHT22;34221;45.296;9.516;2022-11-15T04:11:02;8.30;99.90
47813;DHT22;34221;45.296;9.516;2022-11-15T04:11:36;8.40;99.90
47813;DHT22;34221;45.296;9.516;2022-11-15T04:12:10;8.40;99.90
47813;DHT22;34221;45.296;9.516;2022-11-15T04:12:45;8.40;99.90
47813;DHT22;34221;45.296;9.516;2022-11-15T04:13:20;8.40;99.90
47813;DHT22;34221;45.296;9.516;2022-11-15T04:13:54;8.40;99.90
47813;DHT22;34221;45.296;9.516;2022-11-15T04:14:28;8.40;99.90
47813;DHT22;34221;45.296;9.516;2022-11-15T04:15:05;8.30;99.90
47813;DHT22;34221;45.296;9.516;2022-11-15T04:15:46;8.30;99.90
47813;DHT22;34221;45.296;9.516;2022-11-15T04:16:21;8.30;99.90
47813;DHT22;34221;45.296;9.516;2022-11-15T04:16:54;8.20;99.90
47813;DHT22;34221;45.296;9.516;2022-11-15T04:17:28;8.20;99.90
47813;DHT22;34221;45.296;9.516;2022-11-15T04:18:01;8.20;99.90
47813;DHT22;34221;45.296;9.516;2022-11-15T04:18:35;8.20;99.90
47813;DHT22;34221;45.296;9.516;2022-11-15T04:19:08;8.20;99.90
47813;DHT22;34221;45.296;9.516;2022-11-15T04:20:02;8.20;99.90
47813;DHT22;34221;45.296;9.516;2022-11-15T04:20:55;8.10;99.90
47813;DHT22;34221;45.296;9.516;2022-11-15T04:21:48;8.10;99.90
47813;DHT22;34221;45.296;9.516;2022-11-15T04:22:40;8.20;99.90
47813;DHT22;34221;45.296;9.516;2022-11-15T04:23:32;8.10;99.90
47813;DHT22;34221;45.296;9.516;2022-11-15T04:24:25;8.10;99.90
47813;DHT22;34221;45.296;9.516;2022-11-15T04:24:58;8.10;99.90
47813;DHT22;34221;45.296;9.516;2022-11-15T04:25:32;8.00;99.90
47813;DHT22;34221;45.296;9.516;2022-11-15T04:26:12;8.00;99.90
47813;DHT22;34221;45.296;9.516;2022-11-15T04:26:48;8.10;99.90
47813;DHT22;34221;45.296;9.516;2022-11-15T04:27:22;8.00;99.90
47813;DHT22;34221;45.296;9.516;2022-11-15T04:27:56;8.00;99.90
47813;DHT22;34221;45.296;9.516;2022-11-15T04:28:29;7.90;99.90
47813;DHT22;34221;45.296;9.516;2022-11-15T04:29:03;7.90;99.90
47813;DHT22;34221;45.296;9.516;2022-11-15T04:29:56;7.90;99.90
47813;DHT22;34221;45.296;9.516;2022-11-15T04:30:30;7.90;99.90
47813;DHT22;34221;45.296;9.516;2022-11-15T04:31:03;7.90;99.90
47813;DHT22;34221;45.296;9.516;2022-11-15T04:31:37;7.90;99.90
47813;DHT22;34221;45.296;9.516;2022-11-15T04:32:10;7.90;99.90
47813;DHT22;34221;45.296;9.516;2022-11-15T04:32:44;7.90;99.90